sensor_id;sensor_type;location;lat;lon;timestamp;P1;durP1;ratioP1;P2;durP2;ratioP2
19985;SDS011;10154;52.474;10.768;2022-10-28T00:02:23;8.03;;;4.00;;
19985;SDS011;10154;52.474;10.768;2022-10-28T00:04:48;6.03;;;4.00;;
19985;SDS011;10154;52.474;10.768;2022-10-28T00:07:14;8.10;;;3.80;;
19985;SDS011;10154;52.474;10.768;2022-10-28T00:09:39;8.93;;;4.20;;
19985;SDS011;10154;52.474;10.768;2022-10-28T00:12:04;7.97;;;4.20;;
19985;SDS011;10154;52.474;10.768;2022-10-28T00:14:30;11.00;;;4.30;;
19985;SDS011;10154;52.474;10.768;2022-10-28T00:16:56;7.87;;;4.57;;
19985;SDS011;10154;52.474;10.768;2022-10-28T00:19:21;8.23;;;4.13;;
19985;SDS011;10154;52.474;10.768;2022-10-28T00:21:46;8.33;;;4.10;;
19985;SDS011;10154;52.474;10.768;2022-10-28T00:24:12;9.10;;;4.37;;
19985;SDS011;10154;52.474;10.768;2022-10-28T00:26:38;6.83;;;4.47;;
19985;SDS011;10154;52.474;10.768;2022-10-28T00:29:06;7.73;;;4.30;;
19985;SDS011;10154;52.474;10.768;2022-10-28T00:31:33;11.60;;;4.90;;
19985;SDS011;10154;52.474;10.768;2022-10-28T00:34:00;6.27;;;4.50;;
19985;SDS011;10154;52.474;10.768;2022-10-28T00:36:29;8.43;;;4.20;;
19985;SDS011;10154;52.474;10.768;2022-10-28T00:38:56;6.40;;;4.50;;
19985;SDS011;10154;52.474;10.768;2022-10-28T00:41:35;7.47;;;4.50;;
19985;SDS011;10154;52.474;10.768;2022-10-28T00:44:38;11.13;;;5.17;;
19985;SDS011;10154;52.474;10.768;2022-10-28T00:47:28;7.93;;;4.30;;
19985;SDS011;10154;52.474;10.768;2022-10-28T00:53:04;8.57;;;4.83;;
19985;SDS011;10154;52.474;10.768;2022-10-28T00:55:32;9.53;;;4.77;;
19985;SDS011;10154;52.474;10.768;2022-10-28T00:57:58;7.77;;;4.37;;
19985;SDS011;10154;52.474;10.768;2022-10-28T01:00:25;7.27;;;4.30;;
19985;SDS011;10154;52.474;10.768;2022-10-28T01:02:50;8.07;;;4.27;;
19985;SDS011;10154;52.474;10.768;2022-10-28T01:05:18;6.93;;;4.17;;
19985;SDS011;10154;52.474;10.768;2022-10-28T01:07:46;8.87;;;4.77;;
19985;SDS011;10154;52.474;10.768;2022-10-28T01:10:12;11.17;;;4.60;;
19985;SDS011;10154;52.474;10.768;2022-10-28T01:12:47;5.80;;;4.17;;
19985;SDS011;10154;52.474;10.768;2022-10-28T01:15:35;9.43;;;4.63;;
19985;SDS011;10154;52.474;10.768;2022-10-28T01:20:55;5.83;;;4.53;;
19985;SDS011;10154;52.474;10.768;2022-10-28T01:42:31;10.43;;;4.77;;
19985;SDS011;10154;52.474;10.768;2022-10-28T01:47:31;10.60;;;5.23;;
19985;SDS011;10154;52.474;10.768;2022-10-28T01:50:10;9.27;;;4.63;;
19985;SDS011;10154;52.474;10.768;2022-10-28T01:52:59;11.33;;;5.13;;
19985;SDS011;10154;52.474;10.768;2022-10-28T01:55:34;8.10;;;5.00;;
19985;SDS011;10154;52.474;10.768;2022-10-28T01:58:02;10.53;;;4.77;;
19985;SDS011;10154;52.474;10.768;2022-10-28T02:00:28;8.73;;;4.73;;
19985;SDS011;10154;52.474;10.768;2022-10-28T02:02:54;6.90;;;4.97;;
19985;SDS011;10154;52.474;10.768;2022-10-28T02:06:03;11.50;;;4.80;;
19985;SDS011;10154;52.474;10.768;2022-10-28T02:10:45;10.00;;;5.20;;
19985;SDS011;10154;52.474;10.768;2022-10-28T02:14:24;7.13;;;4.50;;
19985;SDS011;10154;52.474;10.768;2022-10-28T02:22:25;12.13;;;5.23;;
19985;SDS011;10154;52.474;10.768;2022-10-28T02:28:09;8.83;;;4.73;;
19985;SDS011;10154;52.474;10.768;2022-10-28T02:30:46;12.47;;;5.30;;
19985;SDS011;10154;52.474;10.768;2022-10-28T02:33:17;10.93;;;5.10;;
19985;SDS011;10154;52.474;10.768;2022-10-28T02:35:53;10.63;;;5.20;;
19985;SDS011;10154;52.474;10.768;2022-10-28T02:38:25;12.33;;;5.13;;
19985;SDS011;10154;52.474;10.768;2022-10-28T02:40:53;9.67;;;5.50;;
19985;SDS011;10154;52.474;10.768;2022-10-28T02:43:22;8.60;;;5.27;;
19985;SDS011;10154;52.474;10.768;2022-10-28T02:45:50;7.77;;;5.27;;
19985;SDS011;10154;52.474;10.768;2022-10-28T02:48:19;15.67;;;5.63;;
19985;SDS011;10154;52.474;10.768;2022-10-28T02:50:52;8.57;;;5.33;;
19985;SDS011;10154;52.474;10.768;2022-10-28T02:53:29;13.60;;;5.77;;
19985;SDS011;10154;52.474;10.768;2022-10-28T02:55:56;7.87;;;5.13;;
19985;SDS011;10154;52.474;10.768;2022-10-28T02:58:24;11.90;;;5.40;;
19985;SDS011;10154;52.474;10.768;2022-10-28T03:00:49;7.80;;;5.47;;
19985;SDS011;10154;52.474;10.768;2022-10-28T03:03:14;8.70;;;5.07;;
19985;SDS011;10154;52.474;10.768;2022-10-28T03:05:40;9.10;;;4.87;;
19985;SDS011;10154;52.474;10.768;2022-10-28T03:08:05;13.10;;;5.80;;
19985;SDS011;10154;52.474;10.768;2022-10-28T03:10:31;9.87;;;5.50;;
19985;SDS011;10154;52.474;10.768;2022-10-28T03:12:56;10.13;;;6.17;;
19985;SDS011;10154;52.474;10.768;2022-10-28T03:15:21;10.70;;;5.97;;
19985;SDS011;10154;52.474;10.768;2022-10-28T03:17:46;16.23;;;5.87;;
19985;SDS011;10154;52.474;10.768;2022-10-28T03:20:12;19.40;;;6.00;;
19985;SDS011;10154;52.474;10.768;2022-10-28T03:22:37;13.57;;;5.97;;
19985;SDS011;10154;52.474;10.768;2022-10-28T03:25:03;12.47;;;5.87;;
19985;SDS011;10154;52.474;10.768;2022-10-28T03:27:28;16.43;;;6.00;;
19985;SDS011;10154;52.474;10.768;2022-10-28T03:29:54;17.07;;;6.40;;
19985;SDS011;10154;52.474;10.768;2022-10-28T03:32:19;15.13;;;5.97;;
19985;SDS011;10154;52.474;10.768;2022-10-28T03:34:44;11.33;;;5.93;;
19985;SDS011;10154;52.474;10.768;2022-10-28T03:37:11;17.33;;;5.67;;
19985;SDS011;10154;52.474;10.768;2022-10-28T03:39:36;13.07;;;5.80;;
19985;SDS011;10154;52.474;10.768;2022-10-28T03:42:01;13.73;;;6.10;;
19985;SDS011;10154;52.474;10.768;2022-10-28T03:44:27;11.70;;;6.13;;
19985;SDS011;10154;52.474;10.768;2022-10-28T03:46:52;11.87;;;6.10;;
19985;SDS011;10154;52.474;10.768;2022-10-28T03:49:18;11.70;;;5.80;;
19985;SDS011;10154;52.474;10.768;2022-10-28T03:51:43;9.03;;;5.77;;
19985;SDS011;10154;52.474;10.768;2022-10-28T03:54:08;8.27;;;5.20;;
19985;SDS011;10154;52.474;10.768;2022-10-28T03:56:33;10.23;;;5.40;;
19985;SDS011;10154;52.474;10.768;2022-10-28T03:58:59;10.10;;;5.00;;
19985;SDS011;10154;52.474;10.768;2022-10-28T04:01:24;13.53;;;5.93;;
19985;SDS011;10154;52.474;10.768;2022-10-28T04:03:49;7.77;;;5.17;;
19985;SDS011;10154;52.474;10.768;2022-10-28T04:06:15;11.40;;;5.70;;
19985;SDS011;10154;52.474;10.768;2022-10-28T04:08:41;11.37;;;5.53;;
19985;SDS011;10154;52.474;10.768;2022-10-28T04:11:06;11.13;;;5.33;;
19985;SDS011;10154;52.474;10.768;2022-10-28T04:13:32;9.53;;;5.20;;
19985;SDS011;10154;52.474;10.768;2022-10-28T04:15:57;7.73;;;5.50;;
19985;SDS011;10154;52.474;10.768;2022-10-28T04:18:22;9.27;;;5.33;;
19985;SDS011;10154;52.474;10.768;2022-10-28T04:20:48;10.50;;;5.47;;
19985;SDS011;10154;52.474;10.768;2022-10-28T04:23:14;9.17;;;5.90;;
19985;SDS011;10154;52.474;10.768;2022-10-28T04:25:40;9.07;;;5.63;;
19985;SDS011;10154;52.474;10.768;2022-10-28T04:28:06;10.13;;;5.20;;
19985;SDS011;10154;52.474;10.768;2022-10-28T04:30:31;9.70;;;5.30;;
19985;SDS011;10154;52.474;10.768;2022-10-28T04:32:56;8.83;;;5.50;;
19985;SDS011;10154;52.474;10.768;2022-10-28T04:35:22;11.90;;;5.63;;
19985;SDS011;10154;52.474;10.768;2022-10-28T04:37:47;9.73;;;5.50;;
19985;SDS011;10154;52.474;10.768;2022-10-28T04:40:12;11.37;;;5.60;;
19985;SDS011;10154;52.474;10.768;2022-10-28T04:42:38;10.00;;;5.40;;
19985;SDS011;10154;52.474;10.768;2022-10-28T04:45:03;9.70;;;5.53;;
19985;SDS011;10154;52.474;10.768;2022-10-28T04:47:29;10.97;;;5.43;;
19985;SDS011;10154;52.474;10.768;2022-10-28T04:49:54;10.73;;;5.50;;
19985;SDS011;10154;52.474;10.768;2022-10-28T04:52:20;8.63;;;5.50;;
19985;SDS011;10154;52.474;10.768;2022-10-28T04:54:45;10.97;;;6.07;;
19985;SDS011;10154;52.474;10.768;2022-10-28T04:57:10;11.30;;;5.43;;
19985;SDS011;10154;52.474;10.768;2022-10-28T04:59:36;7.50;;;5.60;;
19985;SDS011;10154;52.474;10.768;2022-10-28T05:02:01;14.57;;;5.97;;
19985;SDS011;10154;52.474;10.768;2022-10-28T05:04:27;9.77;;;6.00;;
19985;SDS011;10154;52.474;10.768;2022-10-28T05:06:52;13.30;;;6.80;;
19985;SDS011;10154;52.474;10.768;2022-10-28T05:09:17;7.40;;;5.70;;
19985;SDS011;10154;52.474;10.768;2022-10-28T05:11:43;9.80;;;5.40;;
19985;SDS011;10154;52.474;10.768;2022-10-28T05:14:08;9.10;;;5.63;;
19985;SDS011;10154;52.474;10.768;2022-10-28T05:16:33;16.47;;;5.83;;
19985;SDS011;10154;52.474;10.768;2022-10-28T05:18:59;7.97;;;5.83;;
19985;SDS011;10154;52.474;10.768;2022-10-28T05:21:24;9.30;;;5.60;;
19985;SDS011;10154;52.474;10.768;2022-10-28T05:23:50;7.97;;;5.27;;
19985;SDS011;10154;52.474;10.768;2022-10-28T05:26:15;13.07;;;5.77;;
19985;SDS011;10154;52.474;10.768;2022-10-28T05:28:41;12.43;;;5.60;;
19985;SDS011;10154;52.474;10.768;2022-10-28T05:31:07;12.83;;;5.70;;
19985;SDS011;10154;52.474;10.768;2022-10-28T05:33:33;10.50;;;5.40;;
19985;SDS011;10154;52.474;10.768;2022-10-28T05:35:59;8.80;;;5.53;;
19985;SDS011;10154;52.474;10.768;2022-10-28T05:38:25;10.20;;;5.57;;
19985;SDS011;10154;52.474;10.768;2022-10-28T05:40:50;15.60;;;5.57;;
19985;SDS011;10154;52.474;10.768;2022-10-28T05:43:16;10.37;;;6.03;;
19985;SDS011;10154;52.474;10.768;2022-10-28T05:45:41;10.17;;;5.83;;
19985;SDS011;10154;52.474;10.768;2022-10-28T05:48:06;13.27;;;5.80;;
19985;SDS011;10154;52.474;10.768;2022-10-28T05:50:32;9.17;;;5.73;;
19985;SDS011;10154;52.474;10.768;2022-10-28T05:52:57;10.13;;;5.20;;
19985;SDS011;10154;52.474;10.768;2022-10-28T05:55:23;12.03;;;5.57;;
19985;SDS011;10154;52.474;10.768;2022-10-28T05:57:52;12.10;;;5.60;;
19985;SDS011;10154;52.474;10.768;2022-10-28T06:00:18;7.43;;;5.97;;
19985;SDS011;10154;52.474;10.768;2022-10-28T06:02:45;10.33;;;5.90;;
19985;SDS011;10154;52.474;10.768;2022-10-28T06:05:10;7.30;;;5.77;;
19985;SDS011;10154;52.474;10.768;2022-10-28T06:07:37;11.80;;;6.10;;
19985;SDS011;10154;52.474;10.768;2022-10-28T06:10:03;9.87;;;5.50;;
19985;SDS011;10154;52.474;10.768;2022-10-28T06:12:29;9.10;;;6.13;;
19985;SDS011;10154;52.474;10.768;2022-10-28T06:14:55;15.33;;;6.23;;
19985;SDS011;10154;52.474;10.768;2022-10-28T06:17:20;8.73;;;6.47;;
19985;SDS011;10154;52.474;10.768;2022-10-28T06:19:45;10.67;;;6.47;;
19985;SDS011;10154;52.474;10.768;2022-10-28T06:22:11;7.90;;;6.50;;
19985;SDS011;10154;52.474;10.768;2022-10-28T06:24:36;10.93;;;6.03;;
19985;SDS011;10154;52.474;10.768;2022-10-28T06:27:02;10.40;;;6.27;;
19985;SDS011;10154;52.474;10.768;2022-10-28T06:29:27;11.77;;;6.37;;
19985;SDS011;10154;52.474;10.768;2022-10-28T06:31:53;10.50;;;6.00;;
19985;SDS011;10154;52.474;10.768;2022-10-28T06:34:18;12.90;;;6.27;;
19985;SDS011;10154;52.474;10.768;2022-10-28T06:36:43;17.40;;;6.50;;
19985;SDS011;10154;52.474;10.768;2022-10-28T06:39:09;17.43;;;7.20;;
19985;SDS011;10154;52.474;10.768;2022-10-28T06:41:34;12.30;;;6.60;;
19985;SDS011;10154;52.474;10.768;2022-10-28T06:43:59;11.53;;;6.70;;
19985;SDS011;10154;52.474;10.768;2022-10-28T06:46:25;8.13;;;6.60;;
19985;SDS011;10154;52.474;10.768;2022-10-28T06:48:52;13.50;;;6.93;;
19985;SDS011;10154;52.474;10.768;2022-10-28T06:51:18;10.47;;;7.20;;
19985;SDS011;10154;52.474;10.768;2022-10-28T06:53:47;14.87;;;7.23;;
19985;SDS011;10154;52.474;10.768;2022-10-28T06:56:13;11.97;;;7.20;;
19985;SDS011;10154;52.474;10.768;2022-10-28T06:58:38;11.27;;;7.10;;
19985;SDS011;10154;52.474;10.768;2022-10-28T07:01:04;12.50;;;7.37;;
19985;SDS011;10154;52.474;10.768;2022-10-28T07:03:29;13.03;;;7.10;;
19985;SDS011;10154;52.474;10.768;2022-10-28T07:05:56;11.63;;;7.17;;
19985;SDS011;10154;52.474;10.768;2022-10-28T07:08:22;11.97;;;7.57;;
19985;SDS011;10154;52.474;10.768;2022-10-28T07:10:54;13.27;;;7.60;;
19985;SDS011;10154;52.474;10.768;2022-10-28T07:13:23;14.43;;;6.90;;
19985;SDS011;10154;52.474;10.768;2022-10-28T07:15:50;17.37;;;6.87;;
19985;SDS011;10154;52.474;10.768;2022-10-28T07:18:16;13.33;;;6.77;;
19985;SDS011;10154;52.474;10.768;2022-10-28T07:20:42;14.90;;;6.70;;
19985;SDS011;10154;52.474;10.768;2022-10-28T07:23:07;17.57;;;6.67;;
19985;SDS011;10154;52.474;10.768;2022-10-28T07:25:32;10.40;;;5.67;;
19985;SDS011;10154;52.474;10.768;2022-10-28T07:27:58;10.50;;;5.87;;
19985;SDS011;10154;52.474;10.768;2022-10-28T07:30:24;8.50;;;5.90;;
19985;SDS011;10154;52.474;10.768;2022-10-28T07:32:49;11.07;;;6.10;;
19985;SDS011;10154;52.474;10.768;2022-10-28T07:35:15;12.77;;;6.10;;
19985;SDS011;10154;52.474;10.768;2022-10-28T07:37:40;13.63;;;6.10;;
19985;SDS011;10154;52.474;10.768;2022-10-28T07:40:06;12.47;;;5.60;;
19985;SDS011;10154;52.474;10.768;2022-10-28T07:42:32;6.70;;;5.40;;
19985;SDS011;10154;52.474;10.768;2022-10-28T07:44:58;8.50;;;5.70;;
19985;SDS011;10154;52.474;10.768;2022-10-28T07:47:23;12.23;;;5.23;;
19985;SDS011;10154;52.474;10.768;2022-10-28T07:49:49;11.43;;;5.70;;
19985;SDS011;10154;52.474;10.768;2022-10-28T07:52:15;12.67;;;4.90;;
19985;SDS011;10154;52.474;10.768;2022-10-28T07:54:40;6.43;;;4.80;;
19985;SDS011;10154;52.474;10.768;2022-10-28T07:57:06;9.23;;;4.60;;
19985;SDS011;10154;52.474;10.768;2022-10-28T07:59:31;9.60;;;5.10;;
19985;SDS011;10154;52.474;10.768;2022-10-28T08:01:57;9.97;;;4.90;;
19985;SDS011;10154;52.474;10.768;2022-10-28T08:04:22;8.13;;;4.30;;
19985;SDS011;10154;52.474;10.768;2022-10-28T08:06:47;7.73;;;4.53;;
19985;SDS011;10154;52.474;10.768;2022-10-28T08:09:13;11.93;;;3.97;;
19985;SDS011;10154;52.474;10.768;2022-10-28T08:11:38;8.73;;;3.73;;
19985;SDS011;10154;52.474;10.768;2022-10-28T08:14:03;6.80;;;4.07;;
19985;SDS011;10154;52.474;10.768;2022-10-28T08:16:29;7.20;;;4.13;;
19985;SDS011;10154;52.474;10.768;2022-10-28T08:18:55;11.87;;;4.60;;
19985;SDS011;10154;52.474;10.768;2022-10-28T08:21:22;8.40;;;4.50;;
19985;SDS011;10154;52.474;10.768;2022-10-28T08:23:48;7.57;;;4.80;;
19985;SDS011;10154;52.474;10.768;2022-10-28T08:26:16;9.50;;;4.73;;
19985;SDS011;10154;52.474;10.768;2022-10-28T08:28:41;9.47;;;4.50;;
19985;SDS011;10154;52.474;10.768;2022-10-28T08:31:07;8.23;;;4.13;;
19985;SDS011;10154;52.474;10.768;2022-10-28T08:33:34;10.60;;;4.70;;
19985;SDS011;10154;52.474;10.768;2022-10-28T08:36:00;11.10;;;5.00;;
19985;SDS011;10154;52.474;10.768;2022-10-28T08:38:26;11.45;;;4.22;;
19985;SDS011;10154;52.474;10.768;2022-10-28T08:46:55;8.88;;;4.40;;
19985;SDS011;10154;52.474;10.768;2022-10-28T08:49:24;5.97;;;4.18;;
19985;SDS011;10154;52.474;10.768;2022-10-28T08:51:52;9.80;;;4.30;;
19985;SDS011;10154;52.474;10.768;2022-10-28T08:56:51;10.57;;;4.50;;
19985;SDS011;10154;52.474;10.768;2022-10-28T08:59:20;8.38;;;3.95;;
19985;SDS011;10154;52.474;10.768;2022-10-28T09:01:55;9.93;;;4.30;;
19985;SDS011;10154;52.474;10.768;2022-10-28T09:06:50;10.80;;;4.18;;
19985;SDS011;10154;52.474;10.768;2022-10-28T09:09:19;9.50;;;4.75;;
19985;SDS011;10154;52.474;10.768;2022-10-28T09:17:06;7.43;;;4.40;;
19985;SDS011;10154;52.474;10.768;2022-10-28T09:19:49;8.65;;;3.97;;
19985;SDS011;10154;52.474;10.768;2022-10-28T09:24:59;7.10;;;3.80;;
19985;SDS011;10154;52.474;10.768;2022-10-28T09:35:58;12.98;;;4.20;;
19985;SDS011;10154;52.474;10.768;2022-10-28T09:40:56;10.73;;;3.90;;
19985;SDS011;10154;52.474;10.768;2022-10-28T09:43:25;8.27;;;3.63;;
19985;SDS011;10154;52.474;10.768;2022-10-28T09:45:59;8.88;;;3.70;;
19985;SDS011;10154;52.474;10.768;2022-10-28T09:48:29;11.07;;;4.10;;
19985;SDS011;10154;52.474;10.768;2022-10-28T09:50:56;8.30;;;3.75;;
19985;SDS011;10154;52.474;10.768;2022-10-28T09:53:40;13.63;;;4.25;;
19985;SDS011;10154;52.474;10.768;2022-10-28T09:56:07;7.95;;;3.70;;
19985;SDS011;10154;52.474;10.768;2022-10-28T09:58:33;21.63;;;4.28;;
19985;SDS011;10154;52.474;10.768;2022-10-28T10:00:58;13.15;;;3.78;;
19985;SDS011;10154;52.474;10.768;2022-10-28T10:03:24;12.73;;;4.20;;
19985;SDS011;10154;52.474;10.768;2022-10-28T10:05:50;13.70;;;4.00;;
19985;SDS011;10154;52.474;10.768;2022-10-28T10:08:18;13.10;;;4.60;;
19985;SDS011;10154;52.474;10.768;2022-10-28T10:13:27;16.27;;;4.40;;
19985;SDS011;10154;52.474;10.768;2022-10-28T10:18:43;12.07;;;4.38;;
19985;SDS011;10154;52.474;10.768;2022-10-28T10:21:12;15.75;;;4.13;;
19985;SDS011;10154;52.474;10.768;2022-10-28T10:23:38;10.32;;;4.10;;
19985;SDS011;10154;52.474;10.768;2022-10-28T10:26:13;16.25;;;4.28;;
19985;SDS011;10154;52.474;10.768;2022-10-28T10:28:46;11.70;;;3.92;;
19985;SDS011;10154;52.474;10.768;2022-10-28T10:31:17;14.18;;;4.25;;
19985;SDS011;10154;52.474;10.768;2022-10-28T10:34:00;14.70;;;4.57;;
19985;SDS011;10154;52.474;10.768;2022-10-28T10:36:26;12.88;;;4.53;;
19985;SDS011;10154;52.474;10.768;2022-10-28T10:44:44;12.88;;;4.20;;
19985;SDS011;10154;52.474;10.768;2022-10-28T10:49:29;13.75;;;4.25;;
19985;SDS011;10154;52.474;10.768;2022-10-28T10:51:55;13.38;;;4.32;;
19985;SDS011;10154;52.474;10.768;2022-10-28T10:54:23;12.82;;;4.15;;
19985;SDS011;10154;52.474;10.768;2022-10-28T10:56:49;12.85;;;4.47;;
19985;SDS011;10154;52.474;10.768;2022-10-28T11:01:53;14.23;;;4.60;;
19985;SDS011;10154;52.474;10.768;2022-10-28T11:04:23;15.40;;;4.80;;
19985;SDS011;10154;52.474;10.768;2022-10-28T11:06:51;13.52;;;4.45;;
19985;SDS011;10154;52.474;10.768;2022-10-28T11:09:33;11.68;;;4.60;;
19985;SDS011;10154;52.474;10.768;2022-10-28T11:11:59;12.65;;;4.80;;
19985;SDS011;10154;52.474;10.768;2022-10-28T11:14:26;13.68;;;4.40;;
19985;SDS011;10154;52.474;10.768;2022-10-28T11:16:57;12.43;;;4.40;;
19985;SDS011;10154;52.474;10.768;2022-10-28T11:19:30;16.40;;;4.90;;
19985;SDS011;10154;52.474;10.768;2022-10-28T11:30:12;16.35;;;4.72;;
19985;SDS011;10154;52.474;10.768;2022-10-28T11:32:52;19.02;;;5.10;;
19985;SDS011;10154;52.474;10.768;2022-10-28T11:43:41;17.67;;;5.25;;
19985;SDS011;10154;52.474;10.768;2022-10-28T11:51:59;16.30;;;4.70;;
19985;SDS011;10154;52.474;10.768;2022-10-28T11:54:44;10.18;;;4.40;;
19985;SDS011;10154;52.474;10.768;2022-10-28T11:57:19;12.57;;;4.40;;
19985;SDS011;10154;52.474;10.768;2022-10-28T11:59:53;13.32;;;4.35;;
19985;SDS011;10154;52.474;10.768;2022-10-28T12:15:58;17.70;;;4.82;;
19985;SDS011;10154;52.474;10.768;2022-10-28T12:23:56;15.38;;;5.03;;
19985;SDS011;10154;52.474;10.768;2022-10-28T12:26:31;18.85;;;4.85;;
19985;SDS011;10154;52.474;10.768;2022-10-28T12:28:59;8.18;;;4.53;;
19985;SDS011;10154;52.474;10.768;2022-10-28T12:31:31;16.05;;;5.28;;
19985;SDS011;10154;52.474;10.768;2022-10-28T12:34:03;9.82;;;4.53;;
19985;SDS011;10154;52.474;10.768;2022-10-28T12:36:34;16.55;;;4.75;;
19985;SDS011;10154;52.474;10.768;2022-10-28T12:39:10;14.57;;;5.07;;
19985;SDS011;10154;52.474;10.768;2022-10-28T12:41:59;14.60;;;4.63;;
19985;SDS011;10154;52.474;10.768;2022-10-28T12:44:33;10.45;;;4.50;;
19985;SDS011;10154;52.474;10.768;2022-10-28T12:57:36;11.73;;;4.70;;
19985;SDS011;10154;52.474;10.768;2022-10-28T13:00:47;12.60;;;4.80;;
19985;SDS011;10154;52.474;10.768;2022-10-28T13:03:03;22.83;;;4.60;;
19985;SDS011;10154;52.474;10.768;2022-10-28T13:17:03;18.55;;;5.60;;
19985;SDS011;10154;52.474;10.768;2022-10-28T13:19:36;13.30;;;4.70;;
19985;SDS011;10154;52.474;10.768;2022-10-28T13:24:50;14.95;;;4.47;;
19985;SDS011;10154;52.474;10.768;2022-10-28T13:27:26;16.92;;;4.72;;
19985;SDS011;10154;52.474;10.768;2022-10-28T13:29:52;17.40;;;4.78;;
19985;SDS011;10154;52.474;10.768;2022-10-28T13:32:25;16.95;;;5.25;;
19985;SDS011;10154;52.474;10.768;2022-10-28T13:35:12;15.13;;;4.70;;
19985;SDS011;10154;52.474;10.768;2022-10-28T13:37:49;12.55;;;4.63;;
19985;SDS011;10154;52.474;10.768;2022-10-28T13:42:56;15.82;;;4.55;;
19985;SDS011;10154;52.474;10.768;2022-10-28T13:58:58;17.95;;;4.80;;
19985;SDS011;10154;52.474;10.768;2022-10-28T14:06:45;9.85;;;4.50;;
19985;SDS011;10154;52.474;10.768;2022-10-28T14:09:25;16.08;;;4.95;;
19985;SDS011;10154;52.474;10.768;2022-10-28T14:14:36;18.15;;;5.88;;
19985;SDS011;10154;52.474;10.768;2022-10-28T14:17:02;16.95;;;5.03;;
19985;SDS011;10154;52.474;10.768;2022-10-28T14:19:28;15.55;;;4.65;;
19985;SDS011;10154;52.474;10.768;2022-10-28T14:24:40;17.67;;;5.00;;
19985;SDS011;10154;52.474;10.768;2022-10-28T14:35:01;16.27;;;4.30;;
19985;SDS011;10154;52.474;10.768;2022-10-28T14:40:32;17.67;;;4.38;;
19985;SDS011;10154;52.474;10.768;2022-10-28T14:48:47;13.80;;;4.43;;
19985;SDS011;10154;52.474;10.768;2022-10-28T14:51:36;13.93;;;4.85;;
19985;SDS011;10154;52.474;10.768;2022-10-28T14:54:01;19.38;;;4.50;;
19985;SDS011;10154;52.474;10.768;2022-10-28T14:56:32;17.13;;;5.38;;
19985;SDS011;10154;52.474;10.768;2022-10-28T14:59:15;13.75;;;4.72;;
19985;SDS011;10154;52.474;10.768;2022-10-28T15:04:25;13.48;;;4.82;;
19985;SDS011;10154;52.474;10.768;2022-10-28T15:06:51;21.05;;;5.90;;
19985;SDS011;10154;52.474;10.768;2022-10-28T15:09:24;18.83;;;5.00;;
19985;SDS011;10154;52.474;10.768;2022-10-28T15:11:55;17.08;;;5.20;;
19985;SDS011;10154;52.474;10.768;2022-10-28T15:14:24;17.58;;;4.70;;
19985;SDS011;10154;52.474;10.768;2022-10-28T15:16:52;10.40;;;4.55;;
19985;SDS011;10154;52.474;10.768;2022-10-28T15:19:21;13.63;;;4.70;;
19985;SDS011;10154;52.474;10.768;2022-10-28T15:22:02;16.58;;;5.22;;
19985;SDS011;10154;52.474;10.768;2022-10-28T15:24:29;13.95;;;4.70;;
19985;SDS011;10154;52.474;10.768;2022-10-28T15:26:55;15.55;;;5.00;;
19985;SDS011;10154;52.474;10.768;2022-10-28T15:29:21;13.45;;;4.57;;
19985;SDS011;10154;52.474;10.768;2022-10-28T15:32:03;14.73;;;4.95;;
19985;SDS011;10154;52.474;10.768;2022-10-28T15:34:28;19.33;;;5.13;;
19985;SDS011;10154;52.474;10.768;2022-10-28T15:36:53;14.35;;;5.10;;
19985;SDS011;10154;52.474;10.768;2022-10-28T15:39:20;17.38;;;5.30;;
19985;SDS011;10154;52.474;10.768;2022-10-28T15:41:47;14.50;;;5.10;;
19985;SDS011;10154;52.474;10.768;2022-10-28T15:44:22;14.18;;;5.10;;
19985;SDS011;10154;52.474;10.768;2022-10-28T15:46:51;20.65;;;5.18;;
19985;SDS011;10154;52.474;10.768;2022-10-28T15:49:30;11.90;;;4.78;;
19985;SDS011;10154;52.474;10.768;2022-10-28T15:52:19;18.33;;;4.53;;
19985;SDS011;10154;52.474;10.768;2022-10-28T15:54:52;11.48;;;4.78;;
19985;SDS011;10154;52.474;10.768;2022-10-28T15:57:23;12.15;;;4.90;;
19985;SDS011;10154;52.474;10.768;2022-10-28T16:02:53;16.37;;;4.80;;
19985;SDS011;10154;52.474;10.768;2022-10-28T16:08:06;13.18;;;4.40;;
19985;SDS011;10154;52.474;10.768;2022-10-28T16:11:22;13.68;;;4.53;;
19985;SDS011;10154;52.474;10.768;2022-10-28T16:18:30;13.02;;;5.22;;
19985;SDS011;10154;52.474;10.768;2022-10-28T16:20:57;18.95;;;4.68;;
19985;SDS011;10154;52.474;10.768;2022-10-28T16:23:25;15.23;;;5.60;;
19985;SDS011;10154;52.474;10.768;2022-10-28T16:25:55;23.77;;;5.72;;
19985;SDS011;10154;52.474;10.768;2022-10-28T16:28:22;16.83;;;5.30;;
19985;SDS011;10154;52.474;10.768;2022-10-28T16:30:49;16.92;;;5.57;;
19985;SDS011;10154;52.474;10.768;2022-10-28T16:33:16;15.27;;;4.78;;
19985;SDS011;10154;52.474;10.768;2022-10-28T16:35:42;17.83;;;5.85;;
19985;SDS011;10154;52.474;10.768;2022-10-28T16:38:08;19.63;;;5.38;;
19985;SDS011;10154;52.474;10.768;2022-10-28T16:40:35;19.63;;;5.60;;
19985;SDS011;10154;52.474;10.768;2022-10-28T16:43:01;20.53;;;5.10;;
19985;SDS011;10154;52.474;10.768;2022-10-28T16:45:27;12.13;;;4.87;;
19985;SDS011;10154;52.474;10.768;2022-10-28T16:47:52;18.67;;;4.63;;
19985;SDS011;10154;52.474;10.768;2022-10-28T16:50:17;22.43;;;5.90;;
19985;SDS011;10154;52.474;10.768;2022-10-28T16:52:43;17.38;;;4.82;;
19985;SDS011;10154;52.474;10.768;2022-10-28T16:55:11;14.37;;;4.50;;
19985;SDS011;10154;52.474;10.768;2022-10-28T16:57:41;14.70;;;4.80;;
19985;SDS011;10154;52.474;10.768;2022-10-28T17:00:08;14.50;;;4.80;;
19985;SDS011;10154;52.474;10.768;2022-10-28T17:02:34;23.30;;;4.93;;
19985;SDS011;10154;52.474;10.768;2022-10-28T17:05:00;13.13;;;4.70;;
19985;SDS011;10154;52.474;10.768;2022-10-28T17:07:26;16.20;;;5.13;;
19985;SDS011;10154;52.474;10.768;2022-10-28T17:09:51;19.65;;;5.32;;
19985;SDS011;10154;52.474;10.768;2022-10-28T17:12:18;16.80;;;5.10;;
19985;SDS011;10154;52.474;10.768;2022-10-28T17:14:45;21.37;;;5.07;;
19985;SDS011;10154;52.474;10.768;2022-10-28T17:17:11;18.67;;;4.70;;
19985;SDS011;10154;52.474;10.768;2022-10-28T17:19:37;16.00;;;4.73;;
19985;SDS011;10154;52.474;10.768;2022-10-28T17:22:03;13.37;;;5.47;;
19985;SDS011;10154;52.474;10.768;2022-10-28T17:24:28;14.40;;;4.68;;
19985;SDS011;10154;52.474;10.768;2022-10-28T17:26:53;11.03;;;4.87;;
19985;SDS011;10154;52.474;10.768;2022-10-28T17:29:19;11.60;;;4.80;;
19985;SDS011;10154;52.474;10.768;2022-10-28T17:31:44;16.93;;;4.70;;
19985;SDS011;10154;52.474;10.768;2022-10-28T17:34:10;10.93;;;4.67;;
19985;SDS011;10154;52.474;10.768;2022-10-28T17:36:35;16.37;;;4.47;;
19985;SDS011;10154;52.474;10.768;2022-10-28T17:39:01;12.30;;;4.10;;
19985;SDS011;10154;52.474;10.768;2022-10-28T17:41:26;12.20;;;4.33;;
19985;SDS011;10154;52.474;10.768;2022-10-28T17:43:52;19.97;;;5.13;;
19985;SDS011;10154;52.474;10.768;2022-10-28T17:46:17;14.53;;;4.70;;
19985;SDS011;10154;52.474;10.768;2022-10-28T17:48:43;15.47;;;4.60;;
19985;SDS011;10154;52.474;10.768;2022-10-28T17:51:09;17.97;;;4.63;;
19985;SDS011;10154;52.474;10.768;2022-10-28T17:53:34;10.30;;;4.70;;
19985;SDS011;10154;52.474;10.768;2022-10-28T17:56:02;14.00;;;5.20;;
19985;SDS011;10154;52.474;10.768;2022-10-28T17:58:28;14.13;;;4.37;;
19985;SDS011;10154;52.474;10.768;2022-10-28T18:00:57;20.27;;;4.57;;
19985;SDS011;10154;52.474;10.768;2022-10-28T18:03:30;17.63;;;4.57;;